Montgomery, Indiana
Current Conditions -  °F | °C
As of 6:55 AM on Friday 24 Oct 2014 (Local Time) from KDCY Reporting Station
Overcast Overcast  
Wind Chill: 46°   Ceiling: 3500
Heat Index: 46°   Visibility: 7mi
Dew Point: 46°   Wind: 3mph
Humidity: 99%   Direction: 150°SSE
Pressure: 30.11"   Gusts: NA
Location:  38.66°N, 87.05°W
Report Text: KDCY 241155Z AUTO 15003KT 7SM OVC035 08/08 A3011 RMK AO2 T00780076 10078 20028
Loading
Personal Weather Stations






























Interactive Weather Map
Tropical Storm Tracking
New forecast layout! Learn more

10-Day Weather Forecast

Advertisements
Track Severe Weather on mobile